sensor_id;sensor_type;location;lat;lon;timestamp;temperature;humidity
8792;DHT22;4432;50.890;4.744;2022-10-31T00:01:31;12.90;99.90
8792;DHT22;4432;50.890;4.744;2022-10-31T00:03:57;12.90;99.90
8792;DHT22;4432;50.890;4.744;2022-10-31T00:06:23;12.90;99.90
8792;DHT22;4432;50.890;4.744;2022-10-31T00:08:55;12.80;99.90
8792;DHT22;4432;50.890;4.744;2022-10-31T00:11:22;12.80;99.90
8792;DHT22;4432;50.890;4.744;2022-10-31T00:13:48;12.80;99.90
8792;DHT22;4432;50.890;4.744;2022-10-31T00:16:20;12.80;99.90
8792;DHT22;4432;50.890;4.744;2022-10-31T00:19:00;12.80;99.90
8792;DHT22;4432;50.890;4.744;2022-10-31T00:21:26;12.80;99.90
8792;DHT22;4432;50.890;4.744;2022-10-31T00:23:52;12.70;99.90
8792;DHT22;4432;50.890;4.744;2022-10-31T00:26:18;12.70;99.90
8792;DHT22;4432;50.890;4.744;2022-10-31T00:28:44;12.70;99.90
8792;DHT22;4432;50.890;4.744;2022-10-31T00:31:12;12.70;99.90
8792;DHT22;4432;50.890;4.744;2022-10-31T00:33:38;12.70;99.90
8792;DHT22;4432;50.890;4.744;2022-10-31T00:36:06;12.70;99.90
8792;DHT22;4432;50.890;4.744;2022-10-31T00:38:32;12.60;99.90
8792;DHT22;4432;50.890;4.744;2022-10-31T00:40:58;12.70;99.90
8792;DHT22;4432;50.890;4.744;2022-10-31T00:43:24;12.70;99.90
8792;DHT22;4432;50.890;4.744;2022-10-31T00:45:50;12.70;99.90
8792;DHT22;4432;50.890;4.744;2022-10-31T00:48:15;12.60;99.90
8792;DHT22;4432;50.890;4.744;2022-10-31T00:50:41;12.60;99.90
8792;DHT22;4432;50.890;4.744;2022-10-31T00:53:07;12.50;99.90
8792;DHT22;4432;50.890;4.744;2022-10-31T00:55:33;12.50;99.90
8792;DHT22;4432;50.890;4.744;2022-10-31T00:57:59;12.50;99.90
8792;DHT22;4432;50.890;4.744;2022-10-31T01:00:25;12.50;99.90
8792;DHT22;4432;50.890;4.744;2022-10-31T01:02:51;12.40;99.90
8792;DHT22;4432;50.890;4.744;2022-10-31T01:05:17;12.30;99.90
8792;DHT22;4432;50.890;4.744;2022-10-31T01:07:43;12.30;99.90
8792;DHT22;4432;50.890;4.744;2022-10-31T01:10:09;12.30;99.90
8792;DHT22;4432;50.890;4.744;2022-10-31T01:12:37;12.30;99.90
8792;DHT22;4432;50.890;4.744;2022-10-31T01:15:03;12.30;99.90
8792;DHT22;4432;50.890;4.744;2022-10-31T01:17:29;12.20;99.90
8792;DHT22;4432;50.890;4.744;2022-10-31T01:19:55;12.20;99.90
8792;DHT22;4432;50.890;4.744;2022-10-31T01:22:20;12.20;99.90
8792;DHT22;4432;50.890;4.744;2022-10-31T01:24:46;12.20;99.90
8792;DHT22;4432;50.890;4.744;2022-10-31T01:27:12;12.10;99.90
8792;DHT22;4432;50.890;4.744;2022-10-31T01:29:37;12.10;99.90
8792;DHT22;4432;50.890;4.744;2022-10-31T01:32:03;12.10;99.90
8792;DHT22;4432;50.890;4.744;2022-10-31T01:34:29;12.10;99.90
8792;DHT22;4432;50.890;4.744;2022-10-31T01:36:56;12.10;99.90
8792;DHT22;4432;50.890;4.744;2022-10-31T01:39:22;12.00;99.90
8792;DHT22;4432;50.890;4.744;2022-10-31T01:41:50;12.00;99.90
8792;DHT22;4432;50.890;4.744;2022-10-31T01:46:54;11.80;99.90
8792;DHT22;4432;50.890;4.744;2022-10-31T01:52:13;11.70;99.90
8792;DHT22;4432;50.890;4.744;2022-10-31T01:54:45;11.90;99.90
8792;DHT22;4432;50.890;4.744;2022-10-31T01:57:13;11.80;99.90
8792;DHT22;4432;50.890;4.744;2022-10-31T01:59:44;11.80;99.90
8792;DHT22;4432;50.890;4.744;2022-10-31T02:02:13;11.70;99.90
8792;DHT22;4432;50.890;4.744;2022-10-31T02:04:40;11.70;99.90
8792;DHT22;4432;50.890;4.744;2022-10-31T02:07:16;11.70;99.90
8792;DHT22;4432;50.890;4.744;2022-10-31T02:09:45;11.70;99.90
8792;DHT22;4432;50.890;4.744;2022-10-31T02:12:12;11.60;99.90
8792;DHT22;4432;50.890;4.744;2022-10-31T02:14:38;11.60;99.90
8792;DHT22;4432;50.890;4.744;2022-10-31T02:17:05;11.50;99.90
8792;DHT22;4432;50.890;4.744;2022-10-31T02:30:24;11.40;99.90
8792;DHT22;4432;50.890;4.744;2022-10-31T02:33:07;11.30;99.90
8792;DHT22;4432;50.890;4.744;2022-10-31T02:36:16;11.20;99.90
8792;DHT22;4432;50.890;4.744;2022-10-31T02:47:15;10.90;99.90
8792;DHT22;4432;50.890;4.744;2022-10-31T02:52:27;11.00;99.90
8792;DHT22;4432;50.890;4.744;2022-10-31T02:54:53;11.10;99.90
8792;DHT22;4432;50.890;4.744;2022-10-31T02:57:30;11.10;99.90
8792;DHT22;4432;50.890;4.744;2022-10-31T03:00:06;11.10;99.90
8792;DHT22;4432;50.890;4.744;2022-10-31T03:02:36;11.10;99.90
8792;DHT22;4432;50.890;4.744;2022-10-31T03:13:45;10.90;99.90
8792;DHT22;4432;50.890;4.744;2022-10-31T03:16:42;10.90;99.90
8792;DHT22;4432;50.890;4.744;2022-10-31T03:19:16;10.80;99.90
8792;DHT22;4432;50.890;4.744;2022-10-31T03:22:04;10.90;99.90
8792;DHT22;4432;50.890;4.744;2022-10-31T03:24:37;11.00;99.90
8792;DHT22;4432;50.890;4.744;2022-10-31T03:27:06;11.00;99.90
8792;DHT22;4432;50.890;4.744;2022-10-31T03:29:35;11.00;99.90
8792;DHT22;4432;50.890;4.744;2022-10-31T03:32:09;10.90;99.90
8792;DHT22;4432;50.890;4.744;2022-10-31T03:34:41;10.90;99.90
8792;DHT22;4432;50.890;4.744;2022-10-31T03:37:11;10.90;99.90
8792;DHT22;4432;50.890;4.744;2022-10-31T03:39:39;10.90;99.90
8792;DHT22;4432;50.890;4.744;2022-10-31T03:42:14;10.90;99.90
8792;DHT22;4432;50.890;4.744;2022-10-31T03:44:44;10.90;99.90
8792;DHT22;4432;50.890;4.744;2022-10-31T03:47:11;10.90;99.90
8792;DHT22;4432;50.890;4.744;2022-10-31T03:49:38;10.90;99.90
8792;DHT22;4432;50.890;4.744;2022-10-31T03:52:23;10.90;99.90
8792;DHT22;4432;50.890;4.744;2022-10-31T03:54:57;10.90;99.90
8792;DHT22;4432;50.890;4.744;2022-10-31T03:57:25;11.00;99.90
8792;DHT22;4432;50.890;4.744;2022-10-31T04:00:06;11.10;99.90
8792;DHT22;4432;50.890;4.744;2022-10-31T04:02:35;11.00;99.90
8792;DHT22;4432;50.890;4.744;2022-10-31T04:05:04;11.00;99.90
8792;DHT22;4432;50.890;4.744;2022-10-31T04:07:33;11.00;99.90
8792;DHT22;4432;50.890;4.744;2022-10-31T04:10:03;11.00;99.90
8792;DHT22;4432;50.890;4.744;2022-10-31T04:12:31;11.00;99.90
8792;DHT22;4432;50.890;4.744;2022-10-31T04:14:58;10.90;99.90
8792;DHT22;4432;50.890;4.744;2022-10-31T04:17:27;10.80;99.90
8792;DHT22;4432;50.890;4.744;2022-10-31T04:19:55;10.80;99.90
8792;DHT22;4432;50.890;4.744;2022-10-31T04:22:20;10.70;99.90
8792;DHT22;4432;50.890;4.744;2022-10-31T04:24:46;10.70;99.90
8792;DHT22;4432;50.890;4.744;2022-10-31T04:27:12;10.60;99.90
8792;DHT22;4432;50.890;4.744;2022-10-31T04:29:38;10.60;99.90
8792;DHT22;4432;50.890;4.744;2022-10-31T04:32:03;10.60;99.90
8792;DHT22;4432;50.890;4.744;2022-10-31T04:34:29;10.60;99.90
8792;DHT22;4432;50.890;4.744;2022-10-31T04:36:55;10.50;99.90
8792;DHT22;4432;50.890;4.744;2022-10-31T04:39:20;10.50;99.90
8792;DHT22;4432;50.890;4.744;2022-10-31T04:41:46;10.50;99.90
8792;DHT22;4432;50.890;4.744;2022-10-31T04:44:12;10.60;99.90
8792;DHT22;4432;50.890;4.744;2022-10-31T04:46:37;10.50;99.90
8792;DHT22;4432;50.890;4.744;2022-10-31T04:49:03;10.60;99.90
8792;DHT22;4432;50.890;4.744;2022-10-31T04:51:29;10.60;99.90
8792;DHT22;4432;50.890;4.744;2022-10-31T04:53:54;10.70;99.90
8792;DHT22;4432;50.890;4.744;2022-10-31T04:56:20;10.80;99.90
8792;DHT22;4432;50.890;4.744;2022-10-31T04:58:46;10.80;99.90
8792;DHT22;4432;50.890;4.744;2022-10-31T05:01:12;10.70;99.90
8792;DHT22;4432;50.890;4.744;2022-10-31T05:03:38;10.70;99.90
8792;DHT22;4432;50.890;4.744;2022-10-31T05:06:05;10.80;99.90
8792;DHT22;4432;50.890;4.744;2022-10-31T05:08:31;10.80;99.90
8792;DHT22;4432;50.890;4.744;2022-10-31T05:11:01;10.90;99.90
8792;DHT22;4432;50.890;4.744;2022-10-31T05:13:28;10.90;99.90
8792;DHT22;4432;50.890;4.744;2022-10-31T05:15:53;10.80;99.90
8792;DHT22;4432;50.890;4.744;2022-10-31T05:18:19;10.80;99.90
8792;DHT22;4432;50.890;4.744;2022-10-31T05:20:45;10.80;99.90
8792;DHT22;4432;50.890;4.744;2022-10-31T05:23:11;10.80;99.90
8792;DHT22;4432;50.890;4.744;2022-10-31T05:25:36;10.80;99.90
8792;DHT22;4432;50.890;4.744;2022-10-31T05:28:02;10.80;99.90
8792;DHT22;4432;50.890;4.744;2022-10-31T05:30:30;10.80;99.90
8792;DHT22;4432;50.890;4.744;2022-10-31T05:32:57;10.80;99.90
8792;DHT22;4432;50.890;4.744;2022-10-31T05:35:28;10.80;99.90
8792;DHT22;4432;50.890;4.744;2022-10-31T05:37:54;10.80;99.90
8792;DHT22;4432;50.890;4.744;2022-10-31T05:40:20;10.80;99.90
8792;DHT22;4432;50.890;4.744;2022-10-31T05:42:47;10.90;99.90
8792;DHT22;4432;50.890;4.744;2022-10-31T05:45:15;10.90;99.90
8792;DHT22;4432;50.890;4.744;2022-10-31T05:47:41;10.90;99.90
8792;DHT22;4432;50.890;4.744;2022-10-31T05:50:08;10.90;99.90
8792;DHT22;4432;50.890;4.744;2022-10-31T05:52:35;10.90;99.90
8792;DHT22;4432;50.890;4.744;2022-10-31T05:55:01;11.00;99.90
8792;DHT22;4432;50.890;4.744;2022-10-31T05:57:28;11.00;99.90
8792;DHT22;4432;50.890;4.744;2022-10-31T05:59:54;11.00;99.90
8792;DHT22;4432;50.890;4.744;2022-10-31T06:02:20;11.00;99.90
8792;DHT22;4432;50.890;4.744;2022-10-31T06:04:46;11.00;99.90
8792;DHT22;4432;50.890;4.744;2022-10-31T06:07:11;11.10;99.90
8792;DHT22;4432;50.890;4.744;2022-10-31T06:09:37;11.10;99.90
8792;DHT22;4432;50.890;4.744;2022-10-31T06:12:03;11.20;99.90
8792;DHT22;4432;50.890;4.744;2022-10-31T06:14:29;11.20;99.90
8792;DHT22;4432;50.890;4.744;2022-10-31T06:16:55;11.20;99.90
8792;DHT22;4432;50.890;4.744;2022-10-31T06:19:21;11.10;99.90
8792;DHT22;4432;50.890;4.744;2022-10-31T06:21:47;11.10;99.90
8792;DHT22;4432;50.890;4.744;2022-10-31T06:24:13;11.10;99.90
8792;DHT22;4432;50.890;4.744;2022-10-31T06:26:40;11.10;99.90
8792;DHT22;4432;50.890;4.744;2022-10-31T06:29:06;11.10;99.90
8792;DHT22;4432;50.890;4.744;2022-10-31T06:31:32;11.20;99.90
8792;DHT22;4432;50.890;4.744;2022-10-31T06:33:58;11.20;99.90
8792;DHT22;4432;50.890;4.744;2022-10-31T06:36:23;11.30;99.90
8792;DHT22;4432;50.890;4.744;2022-10-31T06:38:50;11.30;99.90
8792;DHT22;4432;50.890;4.744;2022-10-31T06:41:15;11.40;99.90
8792;DHT22;4432;50.890;4.744;2022-10-31T06:43:41;11.60;99.90
8792;DHT22;4432;50.890;4.744;2022-10-31T06:46:07;11.80;99.90
8792;DHT22;4432;50.890;4.744;2022-10-31T06:48:33;11.90;99.90
8792;DHT22;4432;50.890;4.744;2022-10-31T06:50:59;12.00;99.90
8792;DHT22;4432;50.890;4.744;2022-10-31T06:53:25;11.90;99.90
8792;DHT22;4432;50.890;4.744;2022-10-31T06:55:51;11.90;99.90
8792;DHT22;4432;50.890;4.744;2022-10-31T06:58:17;11.80;99.90
8792;DHT22;4432;50.890;4.744;2022-10-31T07:00:43;11.80;99.90
8792;DHT22;4432;50.890;4.744;2022-10-31T07:03:13;11.80;99.90
8792;DHT22;4432;50.890;4.744;2022-10-31T07:05:41;11.80;99.90
8792;DHT22;4432;50.890;4.744;2022-10-31T07:08:09;11.80;99.90
8792;DHT22;4432;50.890;4.744;2022-10-31T07:10:36;11.90;99.90
8792;DHT22;4432;50.890;4.744;2022-10-31T07:13:04;11.90;99.90
8792;DHT22;4432;50.890;4.744;2022-10-31T07:15:33;12.10;99.90
8792;DHT22;4432;50.890;4.744;2022-10-31T07:18:00;12.20;99.90
8792;DHT22;4432;50.890;4.744;2022-10-31T07:20:27;12.20;99.90
8792;DHT22;4432;50.890;4.744;2022-10-31T07:22:53;12.30;99.90
8792;DHT22;4432;50.890;4.744;2022-10-31T07:25:18;12.30;99.90
8792;DHT22;4432;50.890;4.744;2022-10-31T07:27:44;12.30;99.90
8792;DHT22;4432;50.890;4.744;2022-10-31T07:30:12;12.30;99.90
8792;DHT22;4432;50.890;4.744;2022-10-31T07:32:47;12.30;99.90
8792;DHT22;4432;50.890;4.744;2022-10-31T07:35:22;12.40;99.90
8792;DHT22;4432;50.890;4.744;2022-10-31T07:37:49;12.50;99.90
8792;DHT22;4432;50.890;4.744;2022-10-31T07:40:15;12.50;99.90
8792;DHT22;4432;50.890;4.744;2022-10-31T07:42:46;12.50;99.90
8792;DHT22;4432;50.890;4.744;2022-10-31T07:45:15;12.60;99.90
8792;DHT22;4432;50.890;4.744;2022-10-31T07:47:51;12.60;99.90
8792;DHT22;4432;50.890;4.744;2022-10-31T07:50:26;12.60;99.90
8792;DHT22;4432;50.890;4.744;2022-10-31T07:53:09;12.70;99.90
8792;DHT22;4432;50.890;4.744;2022-10-31T07:55:36;12.80;99.90
8792;DHT22;4432;50.890;4.744;2022-10-31T07:58:05;12.90;99.90
8792;DHT22;4432;50.890;4.744;2022-10-31T08:00:33;12.90;99.90
8792;DHT22;4432;50.890;4.744;2022-10-31T08:03:10;13.00;99.90
8792;DHT22;4432;50.890;4.744;2022-10-31T08:05:37;13.10;99.90
8792;DHT22;4432;50.890;4.744;2022-10-31T08:08:06;13.10;99.90
8792;DHT22;4432;50.890;4.744;2022-10-31T08:10:32;13.20;99.90
8792;DHT22;4432;50.890;4.744;2022-10-31T08:13:04;13.30;99.90
8792;DHT22;4432;50.890;4.744;2022-10-31T08:15:31;13.40;99.90
8792;DHT22;4432;50.890;4.744;2022-10-31T08:17:57;13.50;99.90
8792;DHT22;4432;50.890;4.744;2022-10-31T08:20:23;13.50;99.90
8792;DHT22;4432;50.890;4.744;2022-10-31T08:23:02;13.60;99.90
8792;DHT22;4432;50.890;4.744;2022-10-31T08:25:29;13.60;99.90
8792;DHT22;4432;50.890;4.744;2022-10-31T08:27:56;13.70;99.90
8792;DHT22;4432;50.890;4.744;2022-10-31T08:30:25;13.80;99.90
8792;DHT22;4432;50.890;4.744;2022-10-31T08:35:24;13.90;99.90
8792;DHT22;4432;50.890;4.744;2022-10-31T08:37:54;14.00;99.90
8792;DHT22;4432;50.890;4.744;2022-10-31T08:40:21;14.00;99.90
8792;DHT22;4432;50.890;4.744;2022-10-31T08:42:47;14.10;99.90
8792;DHT22;4432;50.890;4.744;2022-10-31T08:45:12;14.10;99.90
8792;DHT22;4432;50.890;4.744;2022-10-31T08:47:39;14.10;99.90
8792;DHT22;4432;50.890;4.744;2022-10-31T08:50:05;14.20;99.90
8792;DHT22;4432;50.890;4.744;2022-10-31T08:52:31;14.20;99.90
8792;DHT22;4432;50.890;4.744;2022-10-31T08:54:56;14.30;99.90
8792;DHT22;4432;50.890;4.744;2022-10-31T08:57:22;14.40;99.90
8792;DHT22;4432;50.890;4.744;2022-10-31T08:59:48;14.40;99.90
8792;DHT22;4432;50.890;4.744;2022-10-31T09:02:14;14.60;99.90
8792;DHT22;4432;50.890;4.744;2022-10-31T09:04:39;14.70;99.90
8792;DHT22;4432;50.890;4.744;2022-10-31T09:07:05;14.70;99.90
8792;DHT22;4432;50.890;4.744;2022-10-31T09:09:31;14.80;99.90
8792;DHT22;4432;50.890;4.744;2022-10-31T09:11:56;14.90;99.90
8792;DHT22;4432;50.890;4.744;2022-10-31T09:14:22;14.90;99.90
8792;DHT22;4432;50.890;4.744;2022-10-31T09:16:48;14.90;99.90
8792;DHT22;4432;50.890;4.744;2022-10-31T09:19:13;15.00;99.90
8792;DHT22;4432;50.890;4.744;2022-10-31T09:21:39;15.00;99.90
8792;DHT22;4432;50.890;4.744;2022-10-31T09:24:05;15.20;99.90
8792;DHT22;4432;50.890;4.744;2022-10-31T09:26:30;15.30;99.90
8792;DHT22;4432;50.890;4.744;2022-10-31T09:28:58;15.40;99.90
8792;DHT22;4432;50.890;4.744;2022-10-31T09:31:27;15.50;99.90
8792;DHT22;4432;50.890;4.744;2022-10-31T09:33:53;15.70;99.90
8792;DHT22;4432;50.890;4.744;2022-10-31T09:36:19;15.90;99.90
8792;DHT22;4432;50.890;4.744;2022-10-31T09:38:45;16.00;99.90
8792;DHT22;4432;50.890;4.744;2022-10-31T09:41:43;16.00;99.90
8792;DHT22;4432;50.890;4.744;2022-10-31T09:44:32;16.20;99.90
8792;DHT22;4432;50.890;4.744;2022-10-31T09:50:28;16.30;99.90
8792;DHT22;4432;50.890;4.744;2022-10-31T09:53:04;16.30;99.90
8792;DHT22;4432;50.890;4.744;2022-10-31T09:55:36;16.30;99.90
8792;DHT22;4432;50.890;4.744;2022-10-31T09:58:03;16.40;99.90
8792;DHT22;4432;50.890;4.744;2022-10-31T10:00:28;16.40;99.90
8792;DHT22;4432;50.890;4.744;2022-10-31T10:03:11;16.50;99.90
8792;DHT22;4432;50.890;4.744;2022-10-31T10:05:45;16.60;99.90
8792;DHT22;4432;50.890;4.744;2022-10-31T10:08:19;16.70;99.90
8792;DHT22;4432;50.890;4.744;2022-10-31T10:10:55;16.60;99.90
8792;DHT22;4432;50.890;4.744;2022-10-31T10:21:26;16.70;99.90
8792;DHT22;4432;50.890;4.744;2022-10-31T10:26:36;16.70;99.90
8792;DHT22;4432;50.890;4.744;2022-10-31T10:32:28;16.70;99.90
8792;DHT22;4432;50.890;4.744;2022-10-31T10:35:00;16.60;99.90
8792;DHT22;4432;50.890;4.744;2022-10-31T10:37:34;16.60;99.90
8792;DHT22;4432;50.890;4.744;2022-10-31T10:40:17;16.60;99.90
8792;DHT22;4432;50.890;4.744;2022-10-31T10:43:19;16.70;99.90
8792;DHT22;4432;50.890;4.744;2022-10-31T10:49:10;16.70;99.90
8792;DHT22;4432;50.890;4.744;2022-10-31T10:52:00;16.90;99.90
8792;DHT22;4432;50.890;4.744;2022-10-31T11:00:21;17.20;99.90
8792;DHT22;4432;50.890;4.744;2022-10-31T11:02:47;17.30;99.90
8792;DHT22;4432;50.890;4.744;2022-10-31T11:11:24;17.80;99.90
8792;DHT22;4432;50.890;4.744;2022-10-31T11:13:57;18.10;99.90
8792;DHT22;4432;50.890;4.744;2022-10-31T11:16:36;18.10;99.90
8792;DHT22;4432;50.890;4.744;2022-10-31T11:19:21;18.10;99.90
8792;DHT22;4432;50.890;4.744;2022-10-31T11:21:49;18.30;99.90
8792;DHT22;4432;50.890;4.744;2022-10-31T11:24:20;18.30;99.90
8792;DHT22;4432;50.890;4.744;2022-10-31T11:26:48;18.20;99.90
8792;DHT22;4432;50.890;4.744;2022-10-31T11:29:21;18.10;99.90
8792;DHT22;4432;50.890;4.744;2022-10-31T11:31:48;18.10;99.90
8792;DHT22;4432;50.890;4.744;2022-10-31T11:34:29;18.10;99.90
8792;DHT22;4432;50.890;4.744;2022-10-31T11:37:03;18.10;99.90
8792;DHT22;4432;50.890;4.744;2022-10-31T11:39:29;18.10;99.90
8792;DHT22;4432;50.890;4.744;2022-10-31T11:42:00;18.10;99.90
8792;DHT22;4432;50.890;4.744;2022-10-31T11:44:29;18.20;99.90
8792;DHT22;4432;50.890;4.744;2022-10-31T11:46:57;18.40;99.90
8792;DHT22;4432;50.890;4.744;2022-10-31T11:49:47;18.50;99.90
8792;DHT22;4432;50.890;4.744;2022-10-31T11:52:25;18.80;99.90
8792;DHT22;4432;50.890;4.744;2022-10-31T11:55:14;18.80;99.90
8792;DHT22;4432;50.890;4.744;2022-10-31T11:57:51;18.90;99.90
8792;DHT22;4432;50.890;4.744;2022-10-31T12:02:49;18.90;99.90
8792;DHT22;4432;50.890;4.744;2022-10-31T12:05:19;18.90;99.90
8792;DHT22;4432;50.890;4.744;2022-10-31T12:07:48;19.00;99.90
8792;DHT22;4432;50.890;4.744;2022-10-31T12:10:14;18.90;99.90
8792;DHT22;4432;50.890;4.744;2022-10-31T12:15:37;18.80;99.90
8792;DHT22;4432;50.890;4.744;2022-10-31T12:18:24;18.90;99.90
8792;DHT22;4432;50.890;4.744;2022-10-31T12:21:04;18.90;99.90
8792;DHT22;4432;50.890;4.744;2022-10-31T12:29:19;19.30;99.90
8792;DHT22;4432;50.890;4.744;2022-10-31T12:37:23;19.30;99.90
8792;DHT22;4432;50.890;4.744;2022-10-31T12:45:12;19.30;99.90
8792;DHT22;4432;50.890;4.744;2022-10-31T12:50:56;19.40;99.90
8792;DHT22;4432;50.890;4.744;2022-10-31T12:53:38;19.40;99.90
8792;DHT22;4432;50.890;4.744;2022-10-31T12:59:09;19.40;99.90
8792;DHT22;4432;50.890;4.744;2022-10-31T13:01:48;19.50;99.90
8792;DHT22;4432;50.890;4.744;2022-10-31T13:04:39;19.50;99.90
8792;DHT22;4432;50.890;4.744;2022-10-31T13:07:13;19.50;99.90
8792;DHT22;4432;50.890;4.744;2022-10-31T13:10:03;19.50;99.90
8792;DHT22;4432;50.890;4.744;2022-10-31T13:12:33;19.50;99.90
8792;DHT22;4432;50.890;4.744;2022-10-31T13:15:22;19.50;99.90
8792;DHT22;4432;50.890;4.744;2022-10-31T13:17:55;19.40;99.90
8792;DHT22;4432;50.890;4.744;2022-10-31T13:22:55;19.50;99.90
8792;DHT22;4432;50.890;4.744;2022-10-31T13:25:28;19.50;99.90
8792;DHT22;4432;50.890;4.744;2022-10-31T13:27:59;19.40;99.90
8792;DHT22;4432;50.890;4.744;2022-10-31T13:30:32;19.40;99.90
8792;DHT22;4432;50.890;4.744;2022-10-31T13:38:59;19.40;99.90
8792;DHT22;4432;50.890;4.744;2022-10-31T13:44:24;19.40;99.90
8792;DHT22;4432;50.890;4.744;2022-10-31T13:46:51;19.50;99.90
8792;DHT22;4432;50.890;4.744;2022-10-31T13:49:36;19.40;99.90
8792;DHT22;4432;50.890;4.744;2022-10-31T13:52:14;19.20;99.90
8792;DHT22;4432;50.890;4.744;2022-10-31T13:54:50;19.10;99.90
8792;DHT22;4432;50.890;4.744;2022-10-31T13:57:48;19.00;99.90
8792;DHT22;4432;50.890;4.744;2022-10-31T14:02:48;18.70;99.90
8792;DHT22;4432;50.890;4.744;2022-10-31T14:07:47;18.70;99.90
8792;DHT22;4432;50.890;4.744;2022-10-31T14:10:29;18.60;99.90
8792;DHT22;4432;50.890;4.744;2022-10-31T14:15:57;18.50;99.90
8792;DHT22;4432;50.890;4.744;2022-10-31T14:18:30;18.50;99.90
8792;DHT22;4432;50.890;4.744;2022-10-31T14:20:56;18.50;99.90
8792;DHT22;4432;50.890;4.744;2022-10-31T14:23:35;18.40;99.90
8792;DHT22;4432;50.890;4.744;2022-10-31T14:26:30;18.40;99.90
8792;DHT22;4432;50.890;4.744;2022-10-31T14:29:02;18.30;99.90
8792;DHT22;4432;50.890;4.744;2022-10-31T14:31:38;18.40;99.90
8792;DHT22;4432;50.890;4.744;2022-10-31T14:34:25;18.30;99.90
8792;DHT22;4432;50.890;4.744;2022-10-31T14:48:34;18.20;99.90
8792;DHT22;4432;50.890;4.744;2022-10-31T14:51:12;18.20;99.90
8792;DHT22;4432;50.890;4.744;2022-10-31T14:53:51;18.10;99.90
8792;DHT22;4432;50.890;4.744;2022-10-31T14:56:22;18.00;99.90
8792;DHT22;4432;50.890;4.744;2022-10-31T14:58:49;18.00;99.90
8792;DHT22;4432;50.890;4.744;2022-10-31T15:01:29;17.90;99.90
8792;DHT22;4432;50.890;4.744;2022-10-31T15:06:46;18.00;99.90
8792;DHT22;4432;50.890;4.744;2022-10-31T15:11:52;17.90;99.90
8792;DHT22;4432;50.890;4.744;2022-10-31T15:16:51;17.90;99.90
8792;DHT22;4432;50.890;4.744;2022-10-31T15:19:22;17.80;99.90
8792;DHT22;4432;50.890;4.744;2022-10-31T15:21:51;17.70;99.90
8792;DHT22;4432;50.890;4.744;2022-10-31T15:24:17;17.70;99.90
8792;DHT22;4432;50.890;4.744;2022-10-31T15:26:53;17.60;99.90
8792;DHT22;4432;50.890;4.744;2022-10-31T15:29:25;17.50;99.90
8792;DHT22;4432;50.890;4.744;2022-10-31T15:32:22;17.40;99.90
8792;DHT22;4432;50.890;4.744;2022-10-31T15:34:50;17.30;99.90
8792;DHT22;4432;50.890;4.744;2022-10-31T15:37:21;17.20;99.90
8792;DHT22;4432;50.890;4.744;2022-10-31T15:39:48;17.10;99.90
8792;DHT22;4432;50.890;4.744;2022-10-31T15:45:27;16.90;99.90
8792;DHT22;4432;50.890;4.744;2022-10-31T15:48:12;16.90;99.90
8792;DHT22;4432;50.890;4.744;2022-10-31T15:50:41;16.80;99.90
8792;DHT22;4432;50.890;4.744;2022-10-31T15:53:24;16.70;99.90
8792;DHT22;4432;50.890;4.744;2022-10-31T15:56:04;16.60;99.90
8792;DHT22;4432;50.890;4.744;2022-10-31T15:58:33;16.60;99.90
8792;DHT22;4432;50.890;4.744;2022-10-31T16:03:57;16.40;99.90
8792;DHT22;4432;50.890;4.744;2022-10-31T16:06:23;16.40;99.90
8792;DHT22;4432;50.890;4.744;2022-10-31T16:08:50;16.40;99.90
8792;DHT22;4432;50.890;4.744;2022-10-31T16:11:34;16.30;99.90
8792;DHT22;4432;50.890;4.744;2022-10-31T16:14:24;16.30;99.90
8792;DHT22;4432;50.890;4.744;2022-10-31T16:16:54;16.20;99.90
8792;DHT22;4432;50.890;4.744;2022-10-31T16:19:33;16.20;99.90
8792;DHT22;4432;50.890;4.744;2022-10-31T16:22:05;16.20;99.90
8792;DHT22;4432;50.890;4.744;2022-10-31T16:24:35;16.20;99.90
8792;DHT22;4432;50.890;4.744;2022-10-31T16:27:15;16.20;99.90
8792;DHT22;4432;50.890;4.744;2022-10-31T16:29:44;16.20;99.90
8792;DHT22;4432;50.890;4.744;2022-10-31T16:32:52;16.20;99.90
8792;DHT22;4432;50.890;4.744;2022-10-31T16:35:28;16.20;99.90
8792;DHT22;4432;50.890;4.744;2022-10-31T16:37:56;16.30;99.90
8792;DHT22;4432;50.890;4.744;2022-10-31T16:40:23;16.40;99.90
8792;DHT22;4432;50.890;4.744;2022-10-31T16:42:49;16.60;99.90
8792;DHT22;4432;50.890;4.744;2022-10-31T16:45:21;16.60;99.90
8792;DHT22;4432;50.890;4.744;2022-10-31T16:47:48;16.70;99.90
8792;DHT22;4432;50.890;4.744;2022-10-31T16:50:23;16.70;99.90
8792;DHT22;4432;50.890;4.744;2022-10-31T16:52:49;16.80;99.90
8792;DHT22;4432;50.890;4.744;2022-10-31T16:55:16;16.90;99.90
8792;DHT22;4432;50.890;4.744;2022-10-31T16:57:51;17.00;99.90
8792;DHT22;4432;50.890;4.744;2022-10-31T17:00:20;16.90;99.90
8792;DHT22;4432;50.890;4.744;2022-10-31T17:02:47;16.90;99.90
8792;DHT22;4432;50.890;4.744;2022-10-31T17:05:16;16.90;99.90
8792;DHT22;4432;50.890;4.744;2022-10-31T17:07:42;16.90;99.90
8792;DHT22;4432;50.890;4.744;2022-10-31T17:10:09;17.10;99.90
8792;DHT22;4432;50.890;4.744;2022-10-31T17:12:36;17.00;99.90
8792;DHT22;4432;50.890;4.744;2022-10-31T17:15:03;17.00;99.90
8792;DHT22;4432;50.890;4.744;2022-10-31T17:17:30;16.90;99.90
8792;DHT22;4432;50.890;4.744;2022-10-31T17:19:56;16.90;99.90
8792;DHT22;4432;50.890;4.744;2022-10-31T17:22:21;16.80;99.90
8792;DHT22;4432;50.890;4.744;2022-10-31T17:24:47;16.90;99.90
8792;DHT22;4432;50.890;4.744;2022-10-31T17:27:13;16.90;99.90
8792;DHT22;4432;50.890;4.744;2022-10-31T17:29:38;16.90;99.90
8792;DHT22;4432;50.890;4.744;2022-10-31T17:32:04;16.90;99.90
8792;DHT22;4432;50.890;4.744;2022-10-31T17:34:30;16.80;99.90
8792;DHT22;4432;50.890;4.744;2022-10-31T17:36:56;16.70;99.90
8792;DHT22;4432;50.890;4.744;2022-10-31T17:39:22;16.60;99.90
8792;DHT22;4432;50.890;4.744;2022-10-31T17:41:51;16.60;99.90
8792;DHT22;4432;50.890;4.744;2022-10-31T17:44:17;16.60;99.90
8792;DHT22;4432;50.890;4.744;2022-10-31T17:46:43;16.60;99.90
8792;DHT22;4432;50.890;4.744;2022-10-31T17:49:12;16.50;99.90
8792;DHT22;4432;50.890;4.744;2022-10-31T17:51:38;16.40;99.90
8792;DHT22;4432;50.890;4.744;2022-10-31T17:54:04;16.40;99.90
8792;DHT22;4432;50.890;4.744;2022-10-31T17:56:34;16.40;99.90
8792;DHT22;4432;50.890;4.744;2022-10-31T17:59:00;16.40;99.90
8792;DHT22;4432;50.890;4.744;2022-10-31T18:01:26;16.30;99.90
8792;DHT22;4432;50.890;4.744;2022-10-31T18:03:51;16.20;99.90
8792;DHT22;4432;50.890;4.744;2022-10-31T18:06:17;16.20;99.90
8792;DHT22;4432;50.890;4.744;2022-10-31T18:08:46;16.20;99.90
8792;DHT22;4432;50.890;4.744;2022-10-31T18:11:19;16.20;99.90
8792;DHT22;4432;50.890;4.744;2022-10-31T18:13:44;16.20;99.90
8792;DHT22;4432;50.890;4.744;2022-10-31T18:16:13;16.10;99.90
8792;DHT22;4432;50.890;4.744;2022-10-31T18:18:39;16.10;99.90
8792;DHT22;4432;50.890;4.744;2022-10-31T18:21:05;16.10;99.90
8792;DHT22;4432;50.890;4.744;2022-10-31T18:23:31;16.10;99.90
8792;DHT22;4432;50.890;4.744;2022-10-31T18:25:57;16.10;99.90
8792;DHT22;4432;50.890;4.744;2022-10-31T18:28:22;16.10;99.90
8792;DHT22;4432;50.890;4.744;2022-10-31T18:30:49;16.10;99.90
8792;DHT22;4432;50.890;4.744;2022-10-31T18:33:14;16.10;99.90
8792;DHT22;4432;50.890;4.744;2022-10-31T18:35:40;16.00;99.90
8792;DHT22;4432;50.890;4.744;2022-10-31T18:38:06;15.90;99.90
8792;DHT22;4432;50.890;4.744;2022-10-31T18:40:34;15.90;99.90
8792;DHT22;4432;50.890;4.744;2022-10-31T18:43:01;15.90;99.90
8792;DHT22;4432;50.890;4.744;2022-10-31T18:45:27;15.90;99.90